• Join FlightAware (Why Join?)
  • Login
  • US Flag 
04:30AM EDT


 

Airport Tracker/Info


-or-


 

Live Flight TrackerFlight Track Log ✈ N500WB ✈ 06-May-2012 ✈ 1A5 - KMCN

Flight Track Log - Related Links

Times and Time Zones

All times are in EDT time to prevent confusion due to time zone crossing. See the N500WB flight status page for this flight to view local times or setup timezone preferences in your user account.

Time Position Orientation Groundspeed Altitude Reporting Facility
EDT Latitude Longitude Course Direction KTS MPH feet Rate Location/Type
07:36PM 34.9417 -83.2558 185° South 184 212 7,900  Level Atlanta Center
07:37PM 34.8894 -83.2614 186° South 184 212 8,000  Climbing Atlanta Center
07:38PM 34.8436 -83.2669 191° South 179 206 8,000 -60 Level Atlanta Center
07:39PM 34.7894 -83.2800 183° South 186 214 7,900  Descending Atlanta Center
07:40PM 34.7436 -83.2831 191° South 188 216 8,000  Climbing Atlanta Center
07:41PM 34.6872 -83.2961 192° South 188 216 7,900  Descending Atlanta Center
07:42PM 34.6353 -83.3092 185° South 188 216 8,000  Climbing Atlanta Center
07:43PM 34.5872 -83.3147 187° South 181 208 8,000  Level Atlanta Center
07:44PM 34.5372 -83.3225 191° South 181 208 8,000  Level Atlanta Center
07:45PM 34.4831 -83.3356 183° South 181 208 8,000  Level Atlanta Center
07:46PM 34.4372 -83.3386 193° South 181 208 8,000 -60 Level Atlanta Center
07:47PM 34.3808 -83.3542 187° South 186 214 7,900  Descending Atlanta Center
07:48PM 34.3289 -83.3622 189° South 181 208 8,000  Climbing Atlanta Center
07:49PM 34.2767 -83.3725 187° South 189 217 8,000  Level Atlanta Center
07:50PM 34.2244 -83.3806 190° South 195 224 8,000  Level Atlanta Center
07:51PM 34.1725 -83.3911 187° South 195 224 8,000 -60 Level Atlanta Center
07:52PM 34.1181 -83.3989 187° South 200 230 7,900  Descending Atlanta Center
07:55PM 34.0000 -83.4167 195° South 188 216 8,000  Climbing Atlanta TRACON
07:56PM 33.9500 -83.4333 180° South 188 216 7,900  Descending Atlanta TRACON
07:57PM 33.9000 -83.4333 195° South 184 212 8,000  Climbing Atlanta TRACON
07:58PM 33.8500 -83.4500 180° South 188 216 8,000  Level Atlanta TRACON
07:59PM 33.8000 -83.4500 195° South 187 215 8,000 -60 Level Atlanta TRACON
08:00PM 33.7500 -83.4667 180° South 188 216 7,900  Descending Atlanta TRACON
08:01PM 33.6833 -83.4667 196° South 179 206 8,000 60 Climbing Atlanta TRACON
08:02PM 33.6333 -83.4833 180° South 183 211 8,100  Climbing Atlanta TRACON
08:03PM 33.5833 -83.4833 196° South 182 209 8,000  Descending Atlanta TRACON
08:04PM 33.5333 -83.5000 196° South 183 211 8,100  Climbing Atlanta TRACON
08:05PM 33.4833 -83.5167 180° South 187 215 8,000 -240 Descending Atlanta TRACON
08:06PM 33.4333 -83.5167 196° South 189 217 7,700 -360 Descending Atlanta TRACON
08:07PM 33.3833 -83.5333 180° South 189 217 7,300 -480 Descending Atlanta TRACON
08:08PM 33.3333 -83.5333 192° South 185 213 6,800 -600 Descending Atlanta TRACON
08:09PM 33.2667 -83.5500 180° South 185 213 6,100 -600 Descending Atlanta TRACON
08:10PM 33.2167 -83.5500 203° Southwest 173 199 5,600 -480 Descending Atlanta TRACON
08:11PM 33.1833 -83.5667 180° South 174 200 5,200 -420 Descending Atlanta TRACON
08:12PM 33.1333 -83.5667 196° South 171 197 4,900 -300 Descending Atlanta TRACON
08:13PM 33.0833 -83.5833 180° South 171 197 4,600 -300 Descending Atlanta TRACON
08:14PM 33.0333 -83.5833 196° South 172 198 4,300 -360 Descending Atlanta TRACON
08:15PM 32.9833 -83.6000 180° South 172 198 3,900 -360 Descending Atlanta TRACON
08:16PM 32.9333 -83.6000 203° Southwest 175 201 3,600 -360 Descending Atlanta TRACON
08:17PM 32.9000 -83.6167 180° South 175 201 3,200 -480 Descending Atlanta TRACON
08:18PM 32.8500 -83.6167 196° South 166 191 2,800 -300 Descending Atlanta TRACON
08:19PM 32.8000 -83.6333 157° South 146 168 2,600 -480 Descending Atlanta TRACON
08:20PM 32.7667 -83.6167 180° South 121 139 1,900 -600 Descending Atlanta TRACON
08:21PM 32.7500 -83.6167 203° Southwest 115 132 1,500 -540 Descending Atlanta TRACON
08:22PM 32.7167 -83.6333 209° Southwest 105 121 900 -600 Descending Atlanta TRACON
08:29PM 32.4223 -83.8289 29° Northeast  Level Estimated
08:30PM 32.4633 -83.8017 29° Northeast  Level Estimated